Nimbus Weather Services

Informe meteorológico para Carrasco, Uruguay. El informe se hizo hace 11 minutos, a las 21:30 UTC. El viento soplaba a una velocidad de 6.7 m/s (15.0 millas por hora) del sur-sureste (160°). La temperatura era 15 °C (59 °F), con un punto de rocío de 15 °C (59 °F). La presión atmosférica era 1012 hPa (29.88 inHg). Había una humedad relativa del 100.0%. Cielo nublado a partir de los 30 metros (100 pies) En aquel momento la visibilidad global era 1700 metros (5577 pies). Actualmente neblina.

La clave METAR es: SUMU 062130Z 16013KT 1700 BR OVC001 15/15 Q1012 TEMPO DZ BR

Consulta realizada el Sábado 6 de Junio de 2020 18:40. Tiempo usado para generar esta pagina:17,383 ms.